Sky Ever — DSQX9 — position and weather

sailwx.info

Track history (hours):
 
Tides and Currents Weather Stations Pressure Air Temp Water Temp Dewpoint Dewpoint Depression Visibility Wind Speed Wind Dir Waves Ship Positions

Sky Ever

Last reported at 2014-Jul-29 18:30 UTC. Time now 2014-Jul-29 19:00 UTC.
Position N 34°39' E 135°27'.

Length 76 m; draft 3.6 m.

Type: Cargo ship. MMSI: 441751000.

Date/timePositionNaut miles runAvg speedWind from/ knotsBaromVisibWave heightAir tempDewpointWater temp
2014-Jul-29 18:30N 34°39' E 135°27'0 0.0
2014-Jul-29 17:30N 34°39' E 135°27'0 0.0
2014-Jul-29 16:30N 34°39' E 135°27'0 0.0
2014-Jul-29 15:30N 34°39' E 135°27'0 0.0
2014-Jul-29 11:24N 34°39' E 135°27'0 0.0
2014-Jul-29 10:30N 34°39' E 135°27'0 0.0
2014-Jul-29 08:30N 34°39' E 135°27'0 0.0
2014-Jul-29 07:30N 34°39' E 135°27'0 0.0
2014-Jul-29 06:24N 34°39' E 135°27'0 0.0
2014-Jul-29 01:18N 34°39' E 135°27'0 0.0
2014-Jul-29 00:06N 34°39' E 135°27'0 0.0
2014-Jul-28 23:12N 34°39' E 135°27'0 0.0
2014-Jul-28 22:12N 34°39' E 135°27'0 0.0
2014-Jul-28 21:30N 34°39' E 135°27'0 0.0
2014-Jul-28 18:18N 34°39' E 135°27'0 0.0
2014-Jul-28 17:24N 34°39' E 135°27'0 0.0
2014-Jul-28 16:30N 34°39' E 135°27'0 0.0
2014-Jul-28 15:30N 34°39' E 135°27'0 0.0
2014-Jul-28 14:30N 34°39' E 135°27'0 0.0
2014-Jul-28 13:30N 34°39' E 135°27'0 0.0
2014-Jul-28 12:30N 34°39' E 135°27'0 0.0
2014-Jul-28 11:06N 34°39' E 135°27'1 0.9
2014-Jul-28 09:33N 34°39' E 135°25'2 1.3
2014-Jul-28 08:24N 34°37' E 135°26'0 0.0
2014-Jul-28 07:24N 34°37' E 135°26'0 0.0
2014-Jul-28 06:24N 34°37' E 135°26'0 0.0
2014-Jul-28 05:12N 34°37' E 135°26'0 0.0
2014-Jul-27 22:18N 34°37' E 135°26'3 4.0
2014-Jul-27 21:33N 34°37' E 135°22'0 0.3
2014-Jul-27 20:25N 34°37' E 135°22'0 0.0
2014-Jul-27 19:31N 34°37' E 135°22'0 0.0
2014-Jul-27 18:21N 34°37' E 135°22'2 2.6
2014-Jul-27 17:33N 34°36' E 135°20'6 6.4
2014-Jul-27 16:33N 34°35' E 135°12'7 7.2
2014-Jul-27 15:33N 34°36' E 135°03'7 6.5
2014-Jul-27 14:29N 34°35' E 134°55'113 7.0
2014-Jul-26 22:18N 33°60' E 132°45'  
Track history (hours):
 
Tides and Currents Weather Stations Pressure Air Temp Water Temp Dewpoint Dewpoint Depression Visibility Wind Speed Wind Dir Waves Ship Positions

Sky Ever

Last reported at 2014-Jul-29 18:30 UTC. Time now 2014-Jul-29 19:00 UTC.
Position N 34°39' E 135°27'.

Length 76 m; draft 3.6 m.

Type: Cargo ship. MMSI: 441751000.

Date/timePositionNaut miles runAvg speedWind from/ knotsBaromVisibWave heightAir tempDewpointWater temp
2014-Jul-29 18:30N 34°39' E 135°27'0 0.0
2014-Jul-29 17:30N 34°39' E 135°27'0 0.0
2014-Jul-29 16:30N 34°39' E 135°27'0 0.0
2014-Jul-29 15:30N 34°39' E 135°27'0 0.0
2014-Jul-29 11:24N 34°39' E 135°27'0 0.0
2014-Jul-29 10:30N 34°39' E 135°27'0 0.0
2014-Jul-29 08:30N 34°39' E 135°27'0 0.0
2014-Jul-29 07:30N 34°39' E 135°27'0 0.0
2014-Jul-29 06:24N 34°39' E 135°27'0 0.0
2014-Jul-29 01:18N 34°39' E 135°27'0 0.0
2014-Jul-29 00:06N 34°39' E 135°27'0 0.0
2014-Jul-28 23:12N 34°39' E 135°27'0 0.0
2014-Jul-28 22:12N 34°39' E 135°27'0 0.0
2014-Jul-28 21:30N 34°39' E 135°27'0 0.0
2014-Jul-28 18:18N 34°39' E 135°27'0 0.0
2014-Jul-28 17:24N 34°39' E 135°27'0 0.0
2014-Jul-28 16:30N 34°39' E 135°27'0 0.0
2014-Jul-28 15:30N 34°39' E 135°27'0 0.0
2014-Jul-28 14:30N 34°39' E 135°27'0 0.0
2014-Jul-28 13:30N 34°39' E 135°27'0 0.0
2014-Jul-28 12:30N 34°39' E 135°27'0 0.0
2014-Jul-28 11:06N 34°39' E 135°27'1 0.9
2014-Jul-28 09:33N 34°39' E 135°25'2 1.3
2014-Jul-28 08:24N 34°37' E 135°26'0 0.0
2014-Jul-28 07:24N 34°37' E 135°26'0 0.0
2014-Jul-28 06:24N 34°37' E 135°26'0 0.0
2014-Jul-28 05:12N 34°37' E 135°26'0 0.0
2014-Jul-27 22:18N 34°37' E 135°26'3 4.0
2014-Jul-27 21:33N 34°37' E 135°22'0 0.3
2014-Jul-27 20:25N 34°37' E 135°22'0 0.0
2014-Jul-27 19:31N 34°37' E 135°22'0 0.0
2014-Jul-27 18:21N 34°37' E 135°22'2 2.6
2014-Jul-27 17:33N 34°36' E 135°20'6 6.4
2014-Jul-27 16:33N 34°35' E 135°12'7 7.2
2014-Jul-27 15:33N 34°36' E 135°03'7 6.5
2014-Jul-27 14:29N 34°35' E 134°55'113 7.0
2014-Jul-26 22:18N 33°60' E 132°45'  

Dump ship's entire track history